Woodville, Texas
Current Conditions -  °F | °C
As of 3:55 AM on Sunday 23 Nov 2014 (Local Time) from KJAS Reporting Station
Moderate Rain Moderate Rain  
Wind Chill: 61°   Ceiling: 5500
Heat Index: 61°   Visibility: 7mi
Dew Point: 59°   Wind: 0mph
Humidity: 95%   Direction: NA
Pressure: 29.7"   Gusts: NA
Location:  30.75°N, 94.42°W
Report Text: KJAS 230955Z AUTO 00000KT 7SM RA SCT038 BKN055 OVC080 16/15 A2970 RMK AO2 P0016 T01600152
Loading
Personal Weather Stations






























Interactive Weather Map New forecast layout! Learn more

10-Day Weather Forecast

Advertisements
Track Severe Weather on mobile